sensor_id;sensor_type;location;lat;lon;timestamp;P1;durP1;ratioP1;P2;durP2;ratioP2
63050;SDS011;49136;47.416;19.402;2022-09-21T00:00:47;6.50;;;3.50;;
63050;SDS011;49136;47.416;19.402;2022-09-21T00:03:13;6.05;;;3.20;;
63050;SDS011;49136;47.416;19.402;2022-09-21T00:05:39;8.93;;;2.83;;
63050;SDS011;49136;47.416;19.402;2022-09-21T00:08:06;8.55;;;3.55;;
63050;SDS011;49136;47.416;19.402;2022-09-21T00:10:32;7.15;;;3.50;;
63050;SDS011;49136;47.416;19.402;2022-09-21T00:12:59;5.47;;;3.22;;
63050;SDS011;49136;47.416;19.402;2022-09-21T00:15:27;5.10;;;2.83;;
63050;SDS011;49136;47.416;19.402;2022-09-21T00:17:53;5.50;;;2.88;;
63050;SDS011;49136;47.416;19.402;2022-09-21T00:20:20;4.93;;;2.92;;
63050;SDS011;49136;47.416;19.402;2022-09-21T00:22:46;5.90;;;3.13;;
63050;SDS011;49136;47.416;19.402;2022-09-21T00:25:12;7.25;;;3.58;;
63050;SDS011;49136;47.416;19.402;2022-09-21T00:27:38;7.68;;;4.03;;
63050;SDS011;49136;47.416;19.402;2022-09-21T00:30:03;13.52;;;4.63;;
63050;SDS011;49136;47.416;19.402;2022-09-21T00:32:31;5.88;;;3.58;;
63050;SDS011;49136;47.416;19.402;2022-09-21T00:34:57;11.93;;;4.05;;
63050;SDS011;49136;47.416;19.402;2022-09-21T00:37:24;6.25;;;2.85;;
63050;SDS011;49136;47.416;19.402;2022-09-21T00:39:49;6.50;;;3.22;;
63050;SDS011;49136;47.416;19.402;2022-09-21T00:42:17;5.95;;;2.80;;
63050;SDS011;49136;47.416;19.402;2022-09-21T00:44:45;7.20;;;3.58;;
63050;SDS011;49136;47.416;19.402;2022-09-21T00:47:18;6.65;;;3.08;;
63050;SDS011;49136;47.416;19.402;2022-09-21T00:49:48;6.35;;;3.42;;
63050;SDS011;49136;47.416;19.402;2022-09-21T00:52:18;4.88;;;2.88;;
63050;SDS011;49136;47.416;19.402;2022-09-21T00:54:47;4.32;;;2.55;;
63050;SDS011;49136;47.416;19.402;2022-09-21T00:57:17;6.20;;;3.20;;
63050;SDS011;49136;47.416;19.402;2022-09-21T00:59:45;6.32;;;3.25;;
63050;SDS011;49136;47.416;19.402;2022-09-21T01:02:12;7.18;;;2.80;;
63050;SDS011;49136;47.416;19.402;2022-09-21T01:04:39;10.60;;;3.67;;
63050;SDS011;49136;47.416;19.402;2022-09-21T01:07:05;6.72;;;3.35;;
63050;SDS011;49136;47.416;19.402;2022-09-21T01:09:36;4.63;;;2.65;;
63050;SDS011;49136;47.416;19.402;2022-09-21T01:12:19;8.70;;;3.65;;
63050;SDS011;49136;47.416;19.402;2022-09-21T01:15:04;8.77;;;3.58;;
63050;SDS011;49136;47.416;19.402;2022-09-21T01:31:22;6.38;;;3.28;;
63050;SDS011;49136;47.416;19.402;2022-09-21T01:33:53;8.27;;;3.38;;
63050;SDS011;49136;47.416;19.402;2022-09-21T01:36:26;6.85;;;3.00;;
63050;SDS011;49136;47.416;19.402;2022-09-21T01:38:55;12.27;;;4.00;;
63050;SDS011;49136;47.416;19.402;2022-09-21T01:41:26;5.30;;;3.00;;
63050;SDS011;49136;47.416;19.402;2022-09-21T01:44:04;5.78;;;2.83;;
63050;SDS011;49136;47.416;19.402;2022-09-21T01:46:32;8.65;;;3.83;;
63050;SDS011;49136;47.416;19.402;2022-09-21T01:49:03;6.10;;;2.95;;
63050;SDS011;49136;47.416;19.402;2022-09-21T01:51:35;5.97;;;3.22;;
63050;SDS011;49136;47.416;19.402;2022-09-21T01:54:21;7.13;;;3.55;;
63050;SDS011;49136;47.416;19.402;2022-09-21T01:57:29;9.82;;;3.75;;
63050;SDS011;49136;47.416;19.402;2022-09-21T02:00:00;13.15;;;3.70;;
63050;SDS011;49136;47.416;19.402;2022-09-21T02:05:00;10.45;;;2.90;;
63050;SDS011;49136;47.416;19.402;2022-09-21T02:07:28;6.05;;;2.90;;
63050;SDS011;49136;47.416;19.402;2022-09-21T02:09:54;9.30;;;3.90;;
63050;SDS011;49136;47.416;19.402;2022-09-21T02:12:20;7.07;;;3.58;;
63050;SDS011;49136;47.416;19.402;2022-09-21T02:14:47;6.32;;;3.55;;
63050;SDS011;49136;47.416;19.402;2022-09-21T02:17:31;6.63;;;3.20;;
63050;SDS011;49136;47.416;19.402;2022-09-21T02:33:55;8.55;;;3.33;;
63050;SDS011;49136;47.416;19.402;2022-09-21T02:36:39;10.25;;;2.95;;
63050;SDS011;49136;47.416;19.402;2022-09-21T02:39:14;7.63;;;3.88;;
63050;SDS011;49136;47.416;19.402;2022-09-21T02:44:29;6.22;;;3.13;;
63050;SDS011;49136;47.416;19.402;2022-09-21T02:49:47;6.18;;;2.83;;
63050;SDS011;49136;47.416;19.402;2022-09-21T02:52:17;9.05;;;3.42;;
63050;SDS011;49136;47.416;19.402;2022-09-21T02:54:45;8.27;;;3.30;;
63050;SDS011;49136;47.416;19.402;2022-09-21T02:57:15;5.22;;;3.00;;
63050;SDS011;49136;47.416;19.402;2022-09-21T02:59:42;7.30;;;3.40;;
63050;SDS011;49136;47.416;19.402;2022-09-21T03:02:08;8.68;;;3.35;;
63050;SDS011;49136;47.416;19.402;2022-09-21T03:04:36;6.85;;;3.00;;
63050;SDS011;49136;47.416;19.402;2022-09-21T03:07:05;6.78;;;2.97;;
63050;SDS011;49136;47.416;19.402;2022-09-21T03:09:31;6.15;;;3.13;;
63050;SDS011;49136;47.416;19.402;2022-09-21T03:11:56;5.32;;;2.58;;
63050;SDS011;49136;47.416;19.402;2022-09-21T03:14:22;10.95;;;2.95;;
63050;SDS011;49136;47.416;19.402;2022-09-21T03:16:47;8.13;;;4.05;;
63050;SDS011;49136;47.416;19.402;2022-09-21T03:19:13;8.20;;;4.18;;
63050;SDS011;49136;47.416;19.402;2022-09-21T03:21:39;9.80;;;4.07;;
63050;SDS011;49136;47.416;19.402;2022-09-21T03:24:05;9.52;;;3.95;;
63050;SDS011;49136;47.416;19.402;2022-09-21T03:26:31;7.07;;;4.20;;
63050;SDS011;49136;47.416;19.402;2022-09-21T03:28:57;7.55;;;3.50;;
63050;SDS011;49136;47.416;19.402;2022-09-21T03:31:22;10.55;;;3.70;;
63050;SDS011;49136;47.416;19.402;2022-09-21T03:33:48;9.38;;;3.72;;
63050;SDS011;49136;47.416;19.402;2022-09-21T03:36:13;6.85;;;3.45;;
63050;SDS011;49136;47.416;19.402;2022-09-21T03:38:39;10.43;;;3.80;;
63050;SDS011;49136;47.416;19.402;2022-09-21T03:41:04;12.93;;;4.40;;
63050;SDS011;49136;47.416;19.402;2022-09-21T03:43:30;7.03;;;4.00;;
63050;SDS011;49136;47.416;19.402;2022-09-21T03:45:56;12.15;;;4.90;;
63050;SDS011;49136;47.416;19.402;2022-09-21T03:48:21;16.60;;;5.15;;
63050;SDS011;49136;47.416;19.402;2022-09-21T03:50:47;9.93;;;4.50;;
63050;SDS011;49136;47.416;19.402;2022-09-21T03:53:13;9.20;;;4.00;;
63050;SDS011;49136;47.416;19.402;2022-09-21T03:55:38;10.30;;;4.10;;
63050;SDS011;49136;47.416;19.402;2022-09-21T03:58:04;7.63;;;3.97;;
63050;SDS011;49136;47.416;19.402;2022-09-21T04:00:30;7.88;;;4.50;;
63050;SDS011;49136;47.416;19.402;2022-09-21T04:02:55;10.00;;;4.80;;
63050;SDS011;49136;47.416;19.402;2022-09-21T04:05:21;7.40;;;3.88;;
63050;SDS011;49136;47.416;19.402;2022-09-21T04:07:47;9.57;;;4.50;;
63050;SDS011;49136;47.416;19.402;2022-09-21T04:10:14;10.90;;;4.75;;
63050;SDS011;49136;47.416;19.402;2022-09-21T04:12:41;9.73;;;5.10;;
63050;SDS011;49136;47.416;19.402;2022-09-21T04:15:08;8.68;;;4.15;;
63050;SDS011;49136;47.416;19.402;2022-09-21T04:17:38;10.57;;;4.32;;
63050;SDS011;49136;47.416;19.402;2022-09-21T04:20:04;9.90;;;4.60;;
63050;SDS011;49136;47.416;19.402;2022-09-21T04:22:31;13.00;;;5.18;;
63050;SDS011;49136;47.416;19.402;2022-09-21T04:24:56;10.52;;;4.75;;
63050;SDS011;49136;47.416;19.402;2022-09-21T04:27:21;9.07;;;4.70;;
63050;SDS011;49136;47.416;19.402;2022-09-21T04:29:48;10.15;;;4.57;;
63050;SDS011;49136;47.416;19.402;2022-09-21T04:32:13;8.57;;;4.47;;
63050;SDS011;49136;47.416;19.402;2022-09-21T04:34:38;9.63;;;4.78;;
63050;SDS011;49136;47.416;19.402;2022-09-21T04:37:07;16.02;;;4.97;;
63050;SDS011;49136;47.416;19.402;2022-09-21T04:39:33;13.50;;;4.95;;
63050;SDS011;49136;47.416;19.402;2022-09-21T04:41:59;8.77;;;4.95;;
63050;SDS011;49136;47.416;19.402;2022-09-21T04:44:25;16.73;;;5.95;;
63050;SDS011;49136;47.416;19.402;2022-09-21T04:46:50;11.10;;;5.18;;
63050;SDS011;49136;47.416;19.402;2022-09-21T04:49:16;9.63;;;4.80;;
63050;SDS011;49136;47.416;19.402;2022-09-21T04:51:41;18.83;;;5.55;;
63050;SDS011;49136;47.416;19.402;2022-09-21T04:54:06;15.98;;;6.53;;
63050;SDS011;49136;47.416;19.402;2022-09-21T04:56:32;16.05;;;6.15;;
63050;SDS011;49136;47.416;19.402;2022-09-21T04:58:58;17.77;;;6.40;;
63050;SDS011;49136;47.416;19.402;2022-09-21T05:01:23;15.45;;;6.13;;
63050;SDS011;49136;47.416;19.402;2022-09-21T05:03:49;10.80;;;5.78;;
63050;SDS011;49136;47.416;19.402;2022-09-21T05:06:14;15.63;;;6.30;;
63050;SDS011;49136;47.416;19.402;2022-09-21T05:08:39;18.38;;;7.22;;
63050;SDS011;49136;47.416;19.402;2022-09-21T05:11:23;22.38;;;6.95;;
63050;SDS011;49136;47.416;19.402;2022-09-21T05:13:49;19.60;;;7.78;;
63050;SDS011;49136;47.416;19.402;2022-09-21T05:16:15;18.77;;;7.15;;
63050;SDS011;49136;47.416;19.402;2022-09-21T05:18:42;11.68;;;6.07;;
63050;SDS011;49136;47.416;19.402;2022-09-21T05:21:08;15.63;;;6.60;;
63050;SDS011;49136;47.416;19.402;2022-09-21T05:23:35;14.90;;;6.75;;
63050;SDS011;49136;47.416;19.402;2022-09-21T05:26:00;15.98;;;7.45;;
63050;SDS011;49136;47.416;19.402;2022-09-21T05:28:26;18.92;;;7.43;;
63050;SDS011;49136;47.416;19.402;2022-09-21T05:33:53;15.32;;;6.72;;
63050;SDS011;49136;47.416;19.402;2022-09-21T05:38:48;13.90;;;6.43;;
63050;SDS011;49136;47.416;19.402;2022-09-21T05:41:14;19.23;;;7.05;;
63050;SDS011;49136;47.416;19.402;2022-09-21T05:43:40;17.58;;;8.05;;
63050;SDS011;49136;47.416;19.402;2022-09-21T05:46:30;15.70;;;6.72;;
63050;SDS011;49136;47.416;19.402;2022-09-21T06:02:40;12.13;;;6.65;;
63050;SDS011;49136;47.416;19.402;2022-09-21T06:05:12;16.75;;;6.25;;
63050;SDS011;49136;47.416;19.402;2022-09-21T06:07:39;14.45;;;6.57;;
63050;SDS011;49136;47.416;19.402;2022-09-21T06:10:05;11.57;;;7.13;;
63050;SDS011;49136;47.416;19.402;2022-09-21T06:12:32;16.67;;;6.78;;
63050;SDS011;49136;47.416;19.402;2022-09-21T06:14:57;17.55;;;7.00;;
63050;SDS011;49136;47.416;19.402;2022-09-21T06:17:23;13.38;;;6.20;;
63050;SDS011;49136;47.416;19.402;2022-09-21T06:19:51;14.15;;;6.75;;
63050;SDS011;49136;47.416;19.402;2022-09-21T06:22:19;18.48;;;8.07;;
63050;SDS011;49136;47.416;19.402;2022-09-21T06:24:44;10.65;;;5.88;;
63050;SDS011;49136;47.416;19.402;2022-09-21T06:27:10;14.98;;;6.60;;
63050;SDS011;49136;47.416;19.402;2022-09-21T06:29:35;14.10;;;6.55;;
63050;SDS011;49136;47.416;19.402;2022-09-21T06:32:03;16.60;;;7.00;;
63050;SDS011;49136;47.416;19.402;2022-09-21T06:34:29;11.85;;;6.00;;
63050;SDS011;49136;47.416;19.402;2022-09-21T06:36:55;9.52;;;5.82;;
63050;SDS011;49136;47.416;19.402;2022-09-21T06:39:20;15.52;;;5.93;;
63050;SDS011;49136;47.416;19.402;2022-09-21T06:41:46;11.82;;;5.18;;
63050;SDS011;49136;47.416;19.402;2022-09-21T06:44:11;13.40;;;6.38;;
63050;SDS011;49136;47.416;19.402;2022-09-21T06:46:36;11.10;;;5.68;;
63050;SDS011;49136;47.416;19.402;2022-09-21T06:49:02;9.25;;;5.63;;
63050;SDS011;49136;47.416;19.402;2022-09-21T06:51:27;9.73;;;4.95;;
63050;SDS011;49136;47.416;19.402;2022-09-21T06:53:53;6.80;;;3.88;;
63050;SDS011;49136;47.416;19.402;2022-09-21T06:56:20;8.05;;;4.32;;
63050;SDS011;49136;47.416;19.402;2022-09-21T06:58:45;9.60;;;4.93;;
63050;SDS011;49136;47.416;19.402;2022-09-21T07:01:12;7.93;;;4.75;;
63050;SDS011;49136;47.416;19.402;2022-09-21T07:03:39;7.82;;;3.88;;
63050;SDS011;49136;47.416;19.402;2022-09-21T07:06:06;6.80;;;4.00;;
63050;SDS011;49136;47.416;19.402;2022-09-21T07:08:32;6.80;;;4.10;;
63050;SDS011;49136;47.416;19.402;2022-09-21T07:10:58;7.35;;;3.97;;
63050;SDS011;49136;47.416;19.402;2022-09-21T07:13:25;8.50;;;4.60;;
63050;SDS011;49136;47.416;19.402;2022-09-21T07:15:51;10.68;;;3.78;;
63050;SDS011;49136;47.416;19.402;2022-09-21T07:18:17;7.88;;;3.30;;
63050;SDS011;49136;47.416;19.402;2022-09-21T07:20:43;6.57;;;3.90;;
63050;SDS011;49136;47.416;19.402;2022-09-21T07:23:09;7.45;;;3.72;;
63050;SDS011;49136;47.416;19.402;2022-09-21T07:25:35;5.68;;;3.60;;
63050;SDS011;49136;47.416;19.402;2022-09-21T07:28:01;5.13;;;3.03;;
63050;SDS011;49136;47.416;19.402;2022-09-21T07:30:27;6.93;;;3.10;;
63050;SDS011;49136;47.416;19.402;2022-09-21T07:32:52;5.25;;;3.13;;
63050;SDS011;49136;47.416;19.402;2022-09-21T07:35:17;4.32;;;3.10;;
63050;SDS011;49136;47.416;19.402;2022-09-21T07:37:44;5.18;;;3.25;;
63050;SDS011;49136;47.416;19.402;2022-09-21T07:40:09;5.95;;;3.53;;
63050;SDS011;49136;47.416;19.402;2022-09-21T07:42:35;6.38;;;3.35;;
63050;SDS011;49136;47.416;19.402;2022-09-21T07:45:00;8.65;;;3.35;;
63050;SDS011;49136;47.416;19.402;2022-09-21T07:47:26;5.40;;;3.40;;
63050;SDS011;49136;47.416;19.402;2022-09-21T07:49:52;5.40;;;3.35;;
63050;SDS011;49136;47.416;19.402;2022-09-21T07:52:18;4.82;;;3.03;;
63050;SDS011;49136;47.416;19.402;2022-09-21T07:54:43;7.15;;;3.15;;
63050;SDS011;49136;47.416;19.402;2022-09-21T07:57:09;7.60;;;3.55;;
63050;SDS011;49136;47.416;19.402;2022-09-21T07:59:53;5.57;;;3.08;;
63050;SDS011;49136;47.416;19.402;2022-09-21T08:02:22;5.28;;;2.97;;
63050;SDS011;49136;47.416;19.402;2022-09-21T08:04:47;5.10;;;3.28;;
63050;SDS011;49136;47.416;19.402;2022-09-21T08:07:13;5.30;;;3.08;;
63050;SDS011;49136;47.416;19.402;2022-09-21T08:09:38;7.13;;;2.83;;
63050;SDS011;49136;47.416;19.402;2022-09-21T08:12:04;5.32;;;3.05;;
63050;SDS011;49136;47.416;19.402;2022-09-21T08:14:30;5.28;;;2.78;;
63050;SDS011;49136;47.416;19.402;2022-09-21T08:16:56;5.22;;;2.70;;
63050;SDS011;49136;47.416;19.402;2022-09-21T08:19:22;4.68;;;3.03;;
63050;SDS011;49136;47.416;19.402;2022-09-21T08:21:49;7.35;;;2.97;;
63050;SDS011;49136;47.416;19.402;2022-09-21T08:24:15;3.90;;;2.72;;
63050;SDS011;49136;47.416;19.402;2022-09-21T08:26:40;3.22;;;2.67;;
63050;SDS011;49136;47.416;19.402;2022-09-21T08:29:06;4.13;;;2.90;;
63050;SDS011;49136;47.416;19.402;2022-09-21T08:31:32;4.35;;;2.42;;
63050;SDS011;49136;47.416;19.402;2022-09-21T08:33:58;5.00;;;3.05;;
63050;SDS011;49136;47.416;19.402;2022-09-21T08:36:24;4.43;;;2.90;;
63050;SDS011;49136;47.416;19.402;2022-09-21T08:38:50;6.18;;;2.53;;
63050;SDS011;49136;47.416;19.402;2022-09-21T08:41:16;3.67;;;2.58;;
63050;SDS011;49136;47.416;19.402;2022-09-21T08:43:47;8.40;;;2.70;;
63050;SDS011;49136;47.416;19.402;2022-09-21T08:46:26;4.43;;;2.95;;
63050;SDS011;49136;47.416;19.402;2022-09-21T08:48:57;3.72;;;2.67;;
63050;SDS011;49136;47.416;19.402;2022-09-21T08:51:28;4.32;;;2.60;;
63050;SDS011;49136;47.416;19.402;2022-09-21T08:53:57;2.67;;;2.20;;
63050;SDS011;49136;47.416;19.402;2022-09-21T08:56:27;3.88;;;2.38;;
63050;SDS011;49136;47.416;19.402;2022-09-21T08:58:53;2.40;;;1.92;;
63050;SDS011;49136;47.416;19.402;2022-09-21T09:06:40;5.57;;;2.67;;
63050;SDS011;49136;47.416;19.402;2022-09-21T09:15:30;4.50;;;2.75;;
63050;SDS011;49136;47.416;19.402;2022-09-21T09:17:42;5.28;;;2.83;;
63050;SDS011;49136;47.416;19.402;2022-09-21T09:20:30;7.43;;;2.47;;
63050;SDS011;49136;47.416;19.402;2022-09-21T09:23:19;7.75;;;2.15;;
63050;SDS011;49136;47.416;19.402;2022-09-21T09:25:50;3.33;;;2.35;;
63050;SDS011;49136;47.416;19.402;2022-09-21T09:31:11;3.08;;;2.30;;
63050;SDS011;49136;47.416;19.402;2022-09-21T09:36:31;2.35;;;1.83;;
63050;SDS011;49136;47.416;19.402;2022-09-21T09:39:31;4.75;;;2.38;;
63050;SDS011;49136;47.416;19.402;2022-09-21T09:50:08;5.38;;;2.83;;
63050;SDS011;49136;47.416;19.402;2022-09-21T09:52:37;4.65;;;2.67;;
63050;SDS011;49136;47.416;19.402;2022-09-21T09:55:14;4.00;;;2.42;;
63050;SDS011;49136;47.416;19.402;2022-09-21T09:57:44;3.67;;;2.33;;
63050;SDS011;49136;47.416;19.402;2022-09-21T10:00:17;3.30;;;2.38;;
63050;SDS011;49136;47.416;19.402;2022-09-21T10:02:48;5.30;;;2.13;;
63050;SDS011;49136;47.416;19.402;2022-09-21T10:05:20;5.32;;;2.42;;
63050;SDS011;49136;47.416;19.402;2022-09-21T10:07:54;4.82;;;2.72;;
63050;SDS011;49136;47.416;19.402;2022-09-21T10:12:45;5.53;;;2.83;;
63050;SDS011;49136;47.416;19.402;2022-09-21T10:15:11;3.03;;;2.30;;
63050;SDS011;49136;47.416;19.402;2022-09-21T10:17:37;6.13;;;2.20;;
63050;SDS011;49136;47.416;19.402;2022-09-21T10:20:04;3.05;;;1.80;;
63050;SDS011;49136;47.416;19.402;2022-09-21T10:22:32;3.75;;;2.10;;
63050;SDS011;49136;47.416;19.402;2022-09-21T10:24:57;2.50;;;2.10;;
63050;SDS011;49136;47.416;19.402;2022-09-21T10:27:29;5.30;;;2.38;;
63050;SDS011;49136;47.416;19.402;2022-09-21T10:29:58;2.80;;;2.15;;
63050;SDS011;49136;47.416;19.402;2022-09-21T10:32:24;3.25;;;2.60;;
63050;SDS011;49136;47.416;19.402;2022-09-21T10:37:41;12.60;;;2.92;;
63050;SDS011;49136;47.416;19.402;2022-09-21T10:42:46;2.92;;;2.00;;
63050;SDS011;49136;47.416;19.402;2022-09-21T10:45:20;4.32;;;2.35;;
63050;SDS011;49136;47.416;19.402;2022-09-21T10:47:49;3.85;;;2.10;;
63050;SDS011;49136;47.416;19.402;2022-09-21T10:50:36;5.53;;;2.13;;
63050;SDS011;49136;47.416;19.402;2022-09-21T10:53:11;3.05;;;2.25;;
63050;SDS011;49136;47.416;19.402;2022-09-21T10:56:16;3.92;;;1.77;;
63050;SDS011;49136;47.416;19.402;2022-09-21T11:01:46;4.90;;;3.95;;
63050;SDS011;49136;47.416;19.402;2022-09-21T11:04:19;3.45;;;2.10;;
63050;SDS011;49136;47.416;19.402;2022-09-21T11:06:51;2.33;;;1.80;;
63050;SDS011;49136;47.416;19.402;2022-09-21T11:09:26;4.43;;;2.40;;
63050;SDS011;49136;47.416;19.402;2022-09-21T11:20:19;3.20;;;2.17;;
63050;SDS011;49136;47.416;19.402;2022-09-21T11:28:41;3.58;;;2.00;;
63050;SDS011;49136;47.416;19.402;2022-09-21T11:36:37;3.95;;;2.03;;
63050;SDS011;49136;47.416;19.402;2022-09-21T11:44:51;2.50;;;1.65;;
63050;SDS011;49136;47.416;19.402;2022-09-21T11:48:08;3.35;;;2.33;;
63050;SDS011;49136;47.416;19.402;2022-09-21T11:53:03;5.32;;;2.05;;
63050;SDS011;49136;47.416;19.402;2022-09-21T11:55:52;2.33;;;1.80;;
63050;SDS011;49136;47.416;19.402;2022-09-21T12:15:21;7.97;;;2.10;;
63050;SDS011;49136;47.416;19.402;2022-09-21T12:23:27;4.18;;;2.08;;
63050;SDS011;49136;47.416;19.402;2022-09-21T12:25:55;3.33;;;2.28;;
63050;SDS011;49136;47.416;19.402;2022-09-21T12:34:12;2.40;;;1.52;;
63050;SDS011;49136;47.416;19.402;2022-09-21T12:36:43;2.88;;;2.00;;
63050;SDS011;49136;47.416;19.402;2022-09-21T12:39:31;5.78;;;1.65;;
63050;SDS011;49136;47.416;19.402;2022-09-21T12:42:03;1.80;;;1.50;;
63050;SDS011;49136;47.416;19.402;2022-09-21T12:44:34;2.28;;;1.40;;
63050;SDS011;49136;47.416;19.402;2022-09-21T12:47:16;2.88;;;1.80;;
63050;SDS011;49136;47.416;19.402;2022-09-21T12:49:46;5.00;;;1.98;;
63050;SDS011;49136;47.416;19.402;2022-09-21T12:52:23;3.95;;;1.42;;
63050;SDS011;49136;47.416;19.402;2022-09-21T12:57:32;2.05;;;1.40;;
63050;SDS011;49136;47.416;19.402;2022-09-21T13:00:17;1.33;;;1.15;;
63050;SDS011;49136;47.416;19.402;2022-09-21T13:08:14;1.90;;;1.13;;
63050;SDS011;49136;47.416;19.402;2022-09-21T13:10:54;4.53;;;1.55;;
63050;SDS011;49136;47.416;19.402;2022-09-21T13:13:22;1.45;;;1.20;;
63050;SDS011;49136;47.416;19.402;2022-09-21T13:15:52;1.38;;;1.20;;
63050;SDS011;49136;47.416;19.402;2022-09-21T13:18:26;1.60;;;1.30;;
63050;SDS011;49136;47.416;19.402;2022-09-21T13:20:56;1.25;;;1.00;;
63050;SDS011;49136;47.416;19.402;2022-09-21T13:23:23;3.22;;;1.20;;
63050;SDS011;49136;47.416;19.402;2022-09-21T13:26:06;1.83;;;1.20;;
63050;SDS011;49136;47.416;19.402;2022-09-21T13:36:40;4.32;;;1.50;;
63050;SDS011;49136;47.416;19.402;2022-09-21T13:41:33;3.47;;;1.15;;
63050;SDS011;49136;47.416;19.402;2022-09-21T13:49:01;3.63;;;1.70;;
63050;SDS011;49136;47.416;19.402;2022-09-21T13:54:20;4.70;;;2.10;;
63050;SDS011;49136;47.416;19.402;2022-09-21T13:57:01;5.88;;;2.95;;
63050;SDS011;49136;47.416;19.402;2022-09-21T13:59:39;11.70;;;3.80;;
63050;SDS011;49136;47.416;19.402;2022-09-21T14:04:56;5.82;;;2.00;;
63050;SDS011;49136;47.416;19.402;2022-09-21T14:07:31;4.15;;;1.70;;
63050;SDS011;49136;47.416;19.402;2022-09-21T14:09:59;1.58;;;1.05;;
63050;SDS011;49136;47.416;19.402;2022-09-21T14:12:32;1.55;;;1.10;;
63050;SDS011;49136;47.416;19.402;2022-09-21T14:17:42;2.92;;;1.17;;
63050;SDS011;49136;47.416;19.402;2022-09-21T14:20:25;1.88;;;1.02;;
63050;SDS011;49136;47.416;19.402;2022-09-21T14:25:51;2.05;;;0.85;;
63050;SDS011;49136;47.416;19.402;2022-09-21T14:28:32;2.58;;;0.90;;
63050;SDS011;49136;47.416;19.402;2022-09-21T14:31:19;2.40;;;1.13;;
63050;SDS011;49136;47.416;19.402;2022-09-21T14:33:53;2.22;;;1.05;;
63050;SDS011;49136;47.416;19.402;2022-09-21T14:36:25;1.48;;;0.80;;
63050;SDS011;49136;47.416;19.402;2022-09-21T14:39:03;2.42;;;0.77;;
63050;SDS011;49136;47.416;19.402;2022-09-21T14:41:35;2.03;;;1.00;;
63050;SDS011;49136;47.416;19.402;2022-09-21T14:44:06;1.23;;;0.93;;
63050;SDS011;49136;47.416;19.402;2022-09-21T14:49:17;3.53;;;1.70;;
63050;SDS011;49136;47.416;19.402;2022-09-21T14:55:12;8.18;;;1.70;;
63050;SDS011;49136;47.416;19.402;2022-09-21T14:58:05;4.15;;;1.83;;
63050;SDS011;49136;47.416;19.402;2022-09-21T15:00:39;3.00;;;1.52;;
63050;SDS011;49136;47.416;19.402;2022-09-21T15:06:00;2.33;;;1.33;;
63050;SDS011;49136;47.416;19.402;2022-09-21T15:12:18;8.02;;;2.50;;
63050;SDS011;49136;47.416;19.402;2022-09-21T15:15:39;6.13;;;2.50;;
63050;SDS011;49136;47.416;19.402;2022-09-21T15:17:56;11.52;;;3.28;;
63050;SDS011;49136;47.416;19.402;2022-09-21T15:20:24;5.47;;;2.90;;
63050;SDS011;49136;47.416;19.402;2022-09-21T15:22:56;7.07;;;3.22;;
63050;SDS011;49136;47.416;19.402;2022-09-21T15:25:26;6.82;;;3.72;;
63050;SDS011;49136;47.416;19.402;2022-09-21T15:27:55;9.43;;;2.88;;
63050;SDS011;49136;47.416;19.402;2022-09-21T15:30:22;8.05;;;3.90;;
63050;SDS011;49136;47.416;19.402;2022-09-21T15:32:57;7.07;;;3.33;;
63050;SDS011;49136;47.416;19.402;2022-09-21T15:35:25;29.83;;;11.52;;
63050;SDS011;49136;47.416;19.402;2022-09-21T15:37:53;10.90;;;4.53;;
63050;SDS011;49136;47.416;19.402;2022-09-21T15:40:23;4.43;;;2.42;;
63050;SDS011;49136;47.416;19.402;2022-09-21T15:45:28;8.85;;;3.35;;
63050;SDS011;49136;47.416;19.402;2022-09-21T15:48:24;7.25;;;2.60;;
63050;SDS011;49136;47.416;19.402;2022-09-21T15:50:55;7.40;;;2.75;;
63050;SDS011;49136;47.416;19.402;2022-09-21T15:53:30;22.73;;;6.60;;
63050;SDS011;49136;47.416;19.402;2022-09-21T15:55:59;19.05;;;7.28;;
63050;SDS011;49136;47.416;19.402;2022-09-21T15:58:32;12.68;;;3.95;;
63050;SDS011;49136;47.416;19.402;2022-09-21T16:01:02;24.73;;;10.63;;
63050;SDS011;49136;47.416;19.402;2022-09-21T16:03:49;23.85;;;10.52;;
63050;SDS011;49136;47.416;19.402;2022-09-21T16:06:35;23.58;;;7.40;;
63050;SDS011;49136;47.416;19.402;2022-09-21T16:11:54;7.57;;;4.25;;
63050;SDS011;49136;47.416;19.402;2022-09-21T16:14:20;10.57;;;3.33;;
63050;SDS011;49136;47.416;19.402;2022-09-21T16:19:42;7.00;;;2.88;;
63050;SDS011;49136;47.416;19.402;2022-09-21T16:25:02;10.73;;;3.63;;
63050;SDS011;49136;47.416;19.402;2022-09-21T16:28:46;14.32;;;6.15;;
63050;SDS011;49136;47.416;19.402;2022-09-21T16:30:42;14.90;;;5.60;;
63050;SDS011;49136;47.416;19.402;2022-09-21T16:38:58;19.65;;;7.88;;
63050;SDS011;49136;47.416;19.402;2022-09-21T16:41:34;24.50;;;9.25;;
63050;SDS011;49136;47.416;19.402;2022-09-21T16:44:02;136.15;;;37.70;;
63050;SDS011;49136;47.416;19.402;2022-09-21T16:46:28;302.75;;;84.10;;
63050;SDS011;49136;47.416;19.402;2022-09-21T16:48:55;222.05;;;61.42;;
63050;SDS011;49136;47.416;19.402;2022-09-21T16:51:21;200.32;;;54.63;;
63050;SDS011;49136;47.416;19.402;2022-09-21T16:53:48;132.48;;;39.15;;
63050;SDS011;49136;47.416;19.402;2022-09-21T16:56:14;65.63;;;23.40;;
63050;SDS011;49136;47.416;19.402;2022-09-21T16:58:41;30.58;;;8.88;;
63050;SDS011;49136;47.416;19.402;2022-09-21T17:01:11;20.60;;;6.97;;
63050;SDS011;49136;47.416;19.402;2022-09-21T17:03:38;18.20;;;5.60;;
63050;SDS011;49136;47.416;19.402;2022-09-21T17:06:07;13.02;;;5.72;;
63050;SDS011;49136;47.416;19.402;2022-09-21T17:08:38;15.27;;;5.18;;
63050;SDS011;49136;47.416;19.402;2022-09-21T17:11:03;20.95;;;8.48;;
63050;SDS011;49136;47.416;19.402;2022-09-21T17:13:28;24.60;;;9.38;;
63050;SDS011;49136;47.416;19.402;2022-09-21T17:15:55;25.60;;;9.75;;
63050;SDS011;49136;47.416;19.402;2022-09-21T17:18:22;22.70;;;10.00;;
63050;SDS011;49136;47.416;19.402;2022-09-21T17:20:47;21.30;;;8.25;;
63050;SDS011;49136;47.416;19.402;2022-09-21T17:23:13;19.27;;;7.20;;
63050;SDS011;49136;47.416;19.402;2022-09-21T17:25:39;23.45;;;7.32;;
63050;SDS011;49136;47.416;19.402;2022-09-21T17:28:16;19.55;;;6.90;;
63050;SDS011;49136;47.416;19.402;2022-09-21T17:30:47;24.92;;;7.22;;
63050;SDS011;49136;47.416;19.402;2022-09-21T17:33:13;11.82;;;6.03;;
63050;SDS011;49136;47.416;19.402;2022-09-21T17:35:39;12.93;;;5.65;;
63050;SDS011;49136;47.416;19.402;2022-09-21T17:38:05;29.25;;;12.20;;
63050;SDS011;49136;47.416;19.402;2022-09-21T17:40:32;26.00;;;12.32;;
63050;SDS011;49136;47.416;19.402;2022-09-21T17:43:46;31.15;;;12.57;;
63050;SDS011;49136;47.416;19.402;2022-09-21T17:48:54;22.63;;;9.05;;
63050;SDS011;49136;47.416;19.402;2022-09-21T17:51:19;27.90;;;9.45;;
63050;SDS011;49136;47.416;19.402;2022-09-21T17:54:03;25.13;;;9.52;;
63050;SDS011;49136;47.416;19.402;2022-09-21T17:56:35;22.48;;;9.90;;
63050;SDS011;49136;47.416;19.402;2022-09-21T17:59:15;17.08;;;8.48;;
63050;SDS011;49136;47.416;19.402;2022-09-21T18:01:50;19.90;;;7.93;;
63050;SDS011;49136;47.416;19.402;2022-09-21T18:04:16;22.17;;;8.07;;
63050;SDS011;49136;47.416;19.402;2022-09-21T18:06:43;27.48;;;10.52;;
63050;SDS011;49136;47.416;19.402;2022-09-21T18:09:08;24.45;;;9.05;;
63050;SDS011;49136;47.416;19.402;2022-09-21T18:17:14;17.55;;;8.10;;
63050;SDS011;49136;47.416;19.402;2022-09-21T18:25:31;15.88;;;7.18;;
63050;SDS011;49136;47.416;19.402;2022-09-21T18:28:01;18.08;;;7.32;;
63050;SDS011;49136;47.416;19.402;2022-09-21T18:30:36;15.52;;;5.90;;